Time;durP1;ratioP1;P1;durP2;ratioP2;P2;SDS_P1;SDS_P2;PMS_P1;PMS_P2;Temp;Humidity;BMP_temperature;BMP_pressure;BME280_temperature;BME280_humidity;BME280_pressure;Samples;Min_cycle;Max_cycle;Signal;HPM_P1;HPM_P2
2022/07/14 00:01:48;;;;;;;8.13;2.25;;;;;;;19.55;49.36;102225.78;5215545;28;20423;-49
2022/07/14 00:04:21;;;;;;;7.53;2.08;;;;;;;19.50;49.65;102230.00;5216195;28;20962;-50
2022/07/14 00:06:53;;;;;;;9.85;2.42;;;;;;;19.48;49.44;102226.66;5216030;28;20420;-47
2022/07/14 00:09:26;;;;;;;10.27;2.80;;;;;;;19.40;49.74;102224.03;5216671;28;20468;-50
2022/07/14 00:11:58;;;;;;;9.20;2.13;;;;;;;19.33;49.98;102219.38;5218597;28;21752;-47
2022/07/14 00:14:30;;;;;;;7.70;2.25;;;;;;;19.34;49.69;102214.84;5211581;28;20416;-46
2022/07/14 00:17:04;;;;;;;10.68;2.75;;;;;;;19.30;49.77;102216.22;5214462;28;20411;-47
2022/07/14 00:19:37;;;;;;;12.30;2.80;;;;;;;19.26;49.96;102223.75;5216693;28;20423;-49
2022/07/14 00:22:09;;;;;;;5.17;1.80;;;;;;;19.22;49.98;102217.06;5199058;28;20417;-48
2022/07/14 00:24:41;;;;;;;6.55;1.60;;;;;;;19.04;49.98;102189.69;5204689;28;20858;-48
2022/07/14 00:27:14;;;;;;;8.70;2.20;;;;;;;19.14;50.06;102209.06;5217377;28;20431;-45
2022/07/14 00:29:46;;;;;;;9.20;2.33;;;;;;;19.06;50.26;102217.13;5216956;28;20431;-47
2022/07/14 00:32:20;;;;;;;7.30;2.15;;;;;;;19.03;50.29;102212.13;5216165;28;20985;-45
2022/07/14 00:34:52;;;;;;;8.15;2.08;;;;;;;19.00;50.23;102215.97;5217754;28;20411;-50
2022/07/14 00:37:33;;;;;;;6.20;2.05;;;;;;;18.97;50.35;102218.16;5216544;28;20417;-51
2022/07/14 00:40:08;;;;;;;7.32;1.58;;;;;;;18.88;50.52;102215.50;5211200;28;20512;-47
2022/07/14 00:42:43;;;;;;;11.80;2.17;;;;;;;18.86;50.50;102212.16;5219671;28;20442;-47
2022/07/14 00:45:18;;;;;;;10.68;2.92;;;;;;;18.79;50.66;102210.31;5217194;28;20911;-46
2022/07/14 00:47:51;;;;;;;6.45;1.88;;;;;;;18.82;50.69;102213.50;5216491;28;20758;-49
2022/07/14 00:50:24;;;;;;;7.25;1.77;;;;;;;18.78;50.67;102217.53;5216650;28;20453;-46
2022/07/14 00:52:56;;;;;;;6.30;1.77;;;;;;;18.75;50.76;102217.03;5215792;28;20888;-50
2022/07/14 00:55:29;;;;;;;6.03;2.08;;;;;;;18.71;50.90;102213.84;5215983;28;20483;-47
2022/07/14 00:58:01;;;;;;;5.22;1.95;;;;;;;18.66;50.91;102211.66;5219306;28;20908;-48
2022/07/14 01:00:34;;;;;;;6.05;1.90;;;;;;;18.62;50.89;102213.00;5217858;28;20514;-51
2022/07/14 01:03:07;;;;;;;9.40;1.80;;;;;;;18.49;51.18;102210.03;5214109;28;21681;-50
2022/07/14 01:05:40;;;;;;;8.90;2.20;;;;;;;18.54;51.02;102206.81;5219762;28;20500;-51
2022/07/14 01:08:13;;;;;;;5.88;1.73;;;;;;;18.49;51.13;102211.84;5217234;28;20423;-49
2022/07/14 01:10:45;;;;;;;10.30;2.08;;;;;;;18.44;51.12;102209.69;5214712;28;20546;-51
2022/07/14 01:13:18;;;;;;;7.25;1.85;;;;;;;18.37;51.15;102206.84;5216008;28;20427;-44
2022/07/14 01:15:50;;;;;;;6.63;2.55;;;;;;;18.33;51.37;102199.31;5216198;28;20436;-46
2022/07/14 01:18:24;;;;;;;7.22;2.05;;;;;;;18.27;51.55;102200.84;5214498;28;20410;-47
2022/07/14 01:20:56;;;;;;;5.05;1.83;;;;;;;18.19;51.56;102193.63;5218190;28;20890;-45
2022/07/14 01:23:30;;;;;;;7.68;2.22;;;;;;;18.14;51.62;102195.13;5212421;28;20421;-44
2022/07/14 01:26:02;;;;;;;5.75;1.70;;;;;;;18.09;51.75;102190.31;5210136;28;20428;-50
2022/07/14 01:28:35;;;;;;;5.88;1.90;;;;;;;18.05;51.89;102196.97;5213856;28;20438;-48
2022/07/14 01:31:07;;;;;;;4.63;1.88;;;;;;;18.04;51.89;102199.81;5217697;28;20539;-46
2022/07/14 01:33:39;;;;;;;8.32;2.08;;;;;;;18.00;51.90;102196.63;5217213;28;20554;-46
2022/07/14 01:36:12;;;;;;;6.35;2.28;;;;;;;17.95;52.13;102191.78;5214314;28;20419;-49
2022/07/14 01:38:46;;;;;;;8.48;2.15;;;;;;;17.91;52.08;102198.47;5217209;28;20426;-47
2022/07/14 01:41:20;;;;;;;11.13;2.20;;;;;;;17.82;52.33;102188.75;5215740;28;20404;-47
2022/07/14 01:43:53;;;;;;;6.68;2.13;;;;;;;17.84;52.29;102200.13;5217264;28;20434;-47
2022/07/14 01:46:26;;;;;;;6.35;2.17;;;;;;;17.81;52.43;102199.59;5214086;28;20894;-48
2022/07/14 01:48:58;;;;;;;7.82;2.40;;;;;;;17.76;52.53;102192.06;5213976;28;20439;-49
2022/07/14 01:51:30;;;;;;;9.43;2.10;;;;;;;17.72;52.61;102183.53;5203554;28;20424;-48
2022/07/14 01:54:05;;;;;;;7.38;2.20;;;;;;;17.69;52.70;102196.38;5214454;28;20421;-46
2022/07/14 01:56:40;;;;;;;10.32;2.30;;;;;;;17.62;52.70;102187.34;5213370;28;20462;-49
2022/07/14 01:59:13;;;;;;;7.97;2.33;;;;;;;17.63;52.93;102213.06;5212133;28;20537;-48
2022/07/14 02:01:46;;;;;;;5.60;1.60;;;;;;;17.54;52.84;102193.50;5215977;28;20431;-48
2022/07/14 02:04:20;;;;;;;6.30;1.90;;;;;;;17.45;53.04;102183.78;5222548;28;24649;-45
2022/07/14 02:06:55;;;;;;;9.90;2.42;;;;;;;17.44;53.03;102188.31;5216482;28;20534;-46
2022/07/14 02:12:15;;;;;;;9.02;2.67;;;;;;;17.44;53.27;102199.00;5215866;28;20580;-47
2022/07/14 02:14:47;;;;;;;6.72;2.70;;;;;;;17.38;53.42;102188.94;5217215;28;20868;-45
2022/07/14 02:17:20;;;;;;;7.40;2.90;;;;;;;17.36;53.47;102200.78;5217218;28;20836;-47
2022/07/14 02:19:52;;;;;;;10.52;3.08;;;;;;;17.31;53.52;102200.44;5216511;28;20457;-45
2022/07/14 02:22:25;;;;;;;7.50;2.80;;;;;;;17.27;53.51;102192.72;5214368;28;20440;-48
2022/07/14 02:24:58;;;;;;;8.80;2.67;;;;;;;17.25;53.58;102193.91;5214566;28;20408;-47
2022/07/14 02:27:31;;;;;;;7.60;2.42;;;;;;;17.22;53.67;102194.25;5210770;28;20788;-49
2022/07/14 02:30:03;;;;;;;6.90;2.50;;;;;;;17.20;53.75;102206.91;5214049;28;20455;-49
2022/07/14 02:32:36;;;;;;;9.25;2.70;;;;;;;17.18;53.89;102203.53;5214333;28;20435;-46
2022/07/14 02:35:27;;;;;;;8.23;2.45;;;;;;;17.15;53.91;102199.34;5218386;28;20715;-49
2022/07/14 02:37:59;;;;;;;8.38;2.47;;;;;;;17.08;54.09;102201.00;5215871;28;20438;-49
2022/07/14 02:40:33;;;;;;;6.72;1.98;;;;;;;16.51;54.05;102129.47;5218936;28;20504;-48
2022/07/14 02:43:05;;;;;;;11.63;3.00;;;;;;;17.04;54.12;102205.81;5218002;28;20439;-50
2022/07/14 02:45:37;;;;;;;7.28;2.42;;;;;;;17.04;54.25;102208.50;5217783;28;20429;-49
2022/07/14 02:48:11;;;;;;;9.25;2.42;;;;;;;17.04;53.92;102213.00;5220588;28;20426;-50
2022/07/14 02:50:43;;;;;;;7.15;2.30;;;;;;;16.97;54.28;102206.59;5219297;28;20500;-51
2022/07/14 02:53:15;;;;;;;7.93;2.90;;;;;;;16.97;54.55;102212.81;5219748;28;21842;-48
2022/07/14 02:55:49;;;;;;;8.73;2.38;;;;;;;16.95;54.54;102213.94;5215204;28;20441;-50
2022/07/14 02:58:21;;;;;;;8.50;2.40;;;;;;;16.92;54.53;102203.59;5220195;28;20418;-47
2022/07/14 03:01:10;;;;;;;10.05;2.72;;;;;;;16.90;54.67;102200.22;5216141;28;20988;-48
2022/07/14 03:03:43;;;;;;;8.30;2.47;;;;;;;16.87;54.74;102196.03;5217837;28;20424;-48
2022/07/14 03:06:18;;;;;;;9.35;2.65;;;;;;;16.88;54.91;102196.88;5217067;28;20481;-48
2022/07/14 03:08:50;;;;;;;10.45;2.67;;;;;;;16.86;54.93;102198.88;5215071;28;20416;-50
2022/07/14 03:11:24;;;;;;;7.72;2.50;;;;;;;16.85;54.93;102197.19;5215251;28;20509;-46
2022/07/14 03:13:56;;;;;;;7.88;2.25;;;;;;;16.73;55.09;102183.28;5217149;28;20435;-49
2022/07/14 03:16:29;;;;;;;9.10;2.47;;;;;;;16.79;55.16;102190.69;5217491;28;20431;-44
2022/07/14 03:19:01;;;;;;;6.82;1.98;;;;;;;16.78;55.13;102197.00;5215196;28;20416;-50
2022/07/14 03:21:34;;;;;;;9.75;2.78;;;;;;;16.76;55.21;102194.50;5216837;28;20954;-46
2022/07/14 03:24:07;;;;;;;5.80;2.40;;;;;;;16.73;55.35;102200.13;5214936;28;20430;-45
2022/07/14 03:26:41;;;;;;;7.07;2.38;;;;;;;16.41;55.27;102147.38;5217300;28;20416;-49
2022/07/14 03:29:13;;;;;;;11.32;2.85;;;;;;;16.71;55.74;102195.91;5217977;28;20433;-46
2022/07/14 03:31:47;;;;;;;8.82;2.55;;;;;;;16.57;55.51;102179.50;5217622;28;20456;-47
2022/07/14 03:34:19;;;;;;;9.32;2.45;;;;;;;16.62;55.57;102189.69;5217004;28;20420;-48
2022/07/14 03:36:51;;;;;;;7.13;2.47;;;;;;;16.59;55.79;102182.84;5217609;28;20904;-47
2022/07/14 03:39:24;;;;;;;11.88;3.13;;;;;;;16.67;55.75;102195.41;5219176;28;20399;-47
2022/07/14 03:41:58;;;;;;;9.88;2.80;;;;;;;16.66;55.89;102193.75;5220216;28;20428;-47
2022/07/14 03:44:30;;;;;;;11.90;2.80;;;;;;;16.57;56.00;102184.00;5216482;28;20414;-50
2022/07/14 03:47:02;;;;;;;6.40;2.40;;;;;;;16.62;55.92;102191.53;5218591;28;20400;-46
2022/07/14 03:49:35;;;;;;;5.65;2.50;;;;;;;16.64;56.01;102189.56;5218415;28;20420;-49
2022/07/14 03:52:07;;;;;;;11.80;3.20;;;;;;;16.64;56.02;102189.56;5217297;28;21241;-46
2022/07/14 03:54:43;;;;;;;10.87;3.17;;;;;;;16.62;56.07;102186.19;5217589;28;20421;-48
2022/07/14 03:57:16;;;;;;;11.23;2.90;;;;;;;16.59;56.13;102177.50;5217118;28;20434;-47
2022/07/14 03:59:49;;;;;;;12.05;3.03;;;;;;;16.56;56.33;102167.13;5216586;28;20429;-45
2022/07/14 04:02:21;;;;;;;8.53;2.53;;;;;;;16.53;56.33;102161.28;5218654;28;20396;-49
2022/07/14 04:04:54;;;;;;;9.13;3.17;;;;;;;16.65;56.25;102175.22;5214031;28;20559;-47
2022/07/14 04:07:26;;;;;;;7.77;2.97;;;;;;;16.65;56.42;102170.69;5215143;28;20431;-46
2022/07/14 04:09:58;;;;;;;10.68;3.58;;;;;;;16.56;56.50;102156.47;5212936;28;20776;-52
2022/07/14 04:12:32;;;;;;;5.50;2.50;;;;;;;16.68;56.64;102174.91;5214587;28;20417;-46
2022/07/14 04:15:05;;;;;;;9.55;3.10;;;;;;;16.67;56.60;102173.22;5215483;28;20417;-48
2022/07/14 04:17:38;;;;;;;6.40;2.90;;;;;;;16.66;56.63;102172.41;5215734;28;20514;-49
2022/07/14 04:20:12;;;;;;;10.30;2.80;;;;;;;16.59;56.61;102161.50;5215212;28;20581;-50
2022/07/14 04:22:44;;;;;;;7.47;2.90;;;;;;;16.69;56.47;102176.56;5214324;28;20557;-47
2022/07/14 04:25:17;;;;;;;7.43;2.43;;;;;;;16.76;56.42;102181.16;5215019;28;20436;-48
2022/07/14 04:27:51;;;;;;;11.05;3.20;;;;;;;16.80;56.58;102176.34;5217584;28;20483;-47
2022/07/14 04:30:24;;;;;;;8.85;2.85;;;;;;;16.80;56.64;102173.66;5213395;28;20420;-44
2022/07/14 04:32:56;;;;;;;7.65;2.65;;;;;;;16.85;56.67;102178.50;5215295;28;20430;-46
2022/07/14 04:35:29;;;;;;;12.20;2.60;;;;;;;16.88;56.77;102181.72;5214801;28;20458;-49
2022/07/14 04:38:01;;;;;;;8.05;2.65;;;;;;;16.92;56.81;102177.75;5211067;28;20420;-48
2022/07/14 04:40:33;;;;;;;7.28;1.88;;;;;;;16.92;56.72;102161.72;5215953;28;20870;-49
2022/07/14 04:43:07;;;;;;;10.25;2.92;;;;;;;17.01;56.75;102171.44;5220081;28;21141;-46
2022/07/14 04:45:59;;;;;;;8.30;2.03;;;;;;;17.03;56.91;102172.13;5211887;28;20427;-48
2022/07/14 04:52:01;;;;;;;4.55;2.03;;;;;;;17.09;56.73;102167.97;5212181;28;20996;-49
2022/07/14 04:54:10;;;;;;;9.20;2.60;;;;;;;17.16;56.78;102173.53;5203815;28;20423;-47
2022/07/14 04:56:43;;;;;;;5.18;2.00;;;;;;;17.28;56.89;102166.88;5217355;28;21184;-48
2022/07/14 04:59:17;;;;;;;7.00;2.08;;;;;;;17.30;56.91;102175.56;5213340;28;20434;-46
2022/07/14 05:01:49;;;;;;;8.37;2.30;;;;;;;17.36;56.92;102169.56;5212196;28;23160;-45
2022/07/14 05:04:21;;;;;;;7.60;1.98;;;;;;;17.41;57.03;102164.59;5214941;28;20407;-47
2022/07/14 05:07:01;;;;;;;10.30;2.00;;;;;;;17.50;56.73;102168.97;5215405;28;20431;-47
2022/07/14 05:09:34;;;;;;;7.20;2.67;;;;;;;17.44;56.67;102134.06;5213195;28;20870;-48
2022/07/14 05:12:09;;;;;;;7.65;2.00;;;;;;;17.66;56.69;102164.66;5214811;28;20426;-49
2022/07/14 05:14:43;;;;;;;5.22;2.38;;;;;;;17.71;56.65;102171.19;5216901;28;20426;-48
2022/07/14 05:17:15;;;;;;;8.50;2.05;;;;;;;17.78;56.63;102170.56;5219637;28;20643;-51
2022/07/14 05:19:50;;;;;;;11.37;2.70;;;;;;;18.19;56.16;102179.44;5221533;28;20416;-45
2022/07/14 05:22:22;;;;;;;12.90;3.65;;;;;;;19.65;54.72;102185.41;5214200;28;20489;-47
2022/07/14 05:24:55;;;;;;;21.42;3.83;;;;;;;21.32;52.88;102153.94;5219107;28;20414;-47
2022/07/14 05:27:30;;;;;;;14.20;3.65;;;;;;;23.08;51.22;102173.91;5215450;28;20419;-49
2022/07/14 05:30:04;;;;;;;7.50;2.15;;;;;;;24.56;49.37;102158.59;5213447;28;20448;-46
2022/07/14 05:32:37;;;;;;;7.32;2.13;;;;;;;26.01;47.63;102168.94;5218115;28;20424;-49
2022/07/14 05:35:10;;;;;;;8.07;2.05;;;;;;;27.29;45.95;102176.44;5215375;28;20422;-49
2022/07/14 05:37:42;;;;;;;7.28;1.60;;;;;;;28.31;44.50;102175.50;5218527;28;20506;-48
2022/07/14 05:40:15;;;;;;;5.80;2.45;;;;;;;29.27;43.15;102176.00;5215587;28;20440;-52
2022/07/14 05:42:47;;;;;;;8.93;1.83;;;;;;;30.18;41.73;102165.88;5231217;28;20872;-52
2022/07/14 05:45:21;;;;;;;5.05;1.50;;;;;;;31.06;40.46;102171.47;5225256;28;20857;-50
2022/07/14 05:47:53;;;;;;;6.93;1.85;;;;;;;31.84;39.15;102172.00;5221007;28;20503;-53
2022/07/14 05:50:26;;;;;;;7.68;2.15;;;;;;;32.62;38.15;102165.19;5221546;28;20838;-53
2022/07/14 05:52:58;;;;;;;11.07;4.13;;;;;;;33.09;37.14;102176.06;5226151;28;20422;-54
2022/07/14 05:55:31;;;;;;;14.32;3.58;;;;;;;33.31;36.55;102167.63;5219804;28;20422;-54
2022/07/14 05:58:03;;;;;;;9.90;3.40;;;;;;;33.41;36.08;102173.13;5224532;28;20416;-54
2022/07/14 06:00:37;;;;;;;5.18;1.50;;;;;;;33.54;35.90;102181.94;5217289;28;20427;-54
2022/07/14 06:03:10;;;;;;;7.93;1.70;;;;;;;33.87;34.89;102175.91;5214851;28;20963;-53
2022/07/14 06:05:42;;;;;;;4.65;1.38;;;;;;;34.46;34.02;102165.44;5209228;28;20423;-54
2022/07/14 06:08:14;;;;;;;6.43;1.23;;;;;;;35.15;33.02;102167.34;5216012;28;20514;-54
2022/07/14 06:10:47;;;;;;;6.70;1.20;;;;;;;35.79;32.21;102177.34;5221929;28;20423;-57
2022/07/14 06:13:19;;;;;;;6.25;1.35;;;;;;;36.19;31.49;102172.59;5221366;28;23303;-56
2022/07/14 06:15:53;;;;;;;7.00;1.30;;;;;;;35.78;31.84;102164.72;5227620;28;20522;-53
2022/07/14 06:18:26;;;;;;;3.95;0.85;;;;;;;35.03;31.98;102175.13;5225499;28;20961;-56
2022/07/14 06:20:58;;;;;;;7.10;0.82;;;;;;;35.04;31.61;102157.56;5221533;28;20914;-57
2022/07/14 06:23:31;;;;;;;3.88;1.00;;;;;;;35.51;30.93;102158.88;5218003;28;20423;-50
2022/07/14 06:26:09;;;;;;;5.53;1.27;;;;;;;35.91;30.69;102159.66;5221057;28;20538;-57
2022/07/14 06:28:42;;;;;;;5.10;1.25;;;;;;;35.43;30.60;102159.47;5222559;28;20423;-55
2022/07/14 06:31:16;;;;;;;5.63;1.48;;;;;;;35.30;30.68;102152.72;5218529;28;20424;-57
2022/07/14 06:33:48;;;;;;;6.65;1.60;;;;;;;35.43;30.19;102151.25;5218127;28;20434;-55
2022/07/14 06:36:21;;;;;;;7.47;1.43;;;;;;;35.31;30.31;102138.69;5221253;28;20427;-55
2022/07/14 06:38:53;;;;;;;6.35;1.60;;;;;;;35.41;30.14;102142.47;5225624;28;20410;-56
2022/07/14 06:41:26;;;;;;;4.63;1.30;;;;;;;35.26;29.65;102135.16;5222160;28;20931;-54
2022/07/14 06:43:58;;;;;;;7.50;1.80;;;;;;;35.44;29.61;102128.19;5221746;28;20426;-54
2022/07/14 06:46:32;;;;;;;7.03;1.50;;;;;;;35.86;29.44;102132.22;5219667;28;20457;-57
2022/07/14 06:49:04;;;;;;;4.80;1.40;;;;;;;35.74;29.26;102125.19;5223158;28;20433;-57
2022/07/14 06:51:37;;;;;;;4.68;1.23;;;;;;;35.68;29.10;102131.84;5222400;28;20518;-55
2022/07/14 06:55:06;;;;;;;6.65;1.20;;;;;;;35.40;29.22;102135.31;5222723;28;20660;-57
2022/07/14 06:57:38;;;;;;;4.78;1.05;;;;;;;34.88;29.38;102132.09;5222369;28;20431;-56
2022/07/14 07:00:12;;;;;;;4.05;1.13;;;;;;;34.91;29.56;102127.97;5225720;28;20431;-54
2022/07/14 07:02:46;;;;;;;7.15;1.20;;;;;;;35.45;28.77;102143.53;5224832;28;20498;-56
2022/07/14 07:08:09;;;;;;;4.40;0.90;;;;;;;34.82;29.44;102136.78;5211946;28;20426;-56
2022/07/14 07:10:41;;;;;;;5.65;1.08;;;;;;;34.46;29.53;102132.50;5216059;28;20457;-56
2022/07/14 07:13:14;;;;;;;5.28;1.15;;;;;;;34.34;29.52;102136.38;5217340;28;20547;-57
2022/07/14 07:15:46;;;;;;;3.25;1.00;;;;;;;34.25;29.36;102137.22;5219275;28;20438;-56
2022/07/14 07:18:20;;;;;;;9.15;1.13;;;;;;;34.45;29.07;102126.22;5223290;28;20443;-55
2022/07/14 07:20:52;;;;;;;4.25;1.10;;;;;;;34.22;29.02;102133.13;5218849;28;20526;-55
2022/07/14 07:23:25;;;;;;;3.97;1.10;;;;;;;34.38;29.11;102132.00;5229292;27;20490;-56
2022/07/14 07:25:58;;;;;;;3.27;0.90;;;;;;;35.03;28.44;102128.44;5218387;28;20517;-53
2022/07/14 07:28:30;;;;;;;5.30;1.30;;;;;;;35.31;28.37;102126.91;5211553;28;20540;-54
2022/07/14 07:31:03;;;;;;;5.23;1.20;;;;;;;34.60;29.15;102128.09;5209907;28;20443;-53
2022/07/14 07:33:36;;;;;;;5.97;1.00;;;;;;;33.90;29.60;102137.00;5212042;28;20426;-56
2022/07/14 07:36:09;;;;;;;2.60;0.80;;;;;;;33.57;29.78;102132.06;5213733;28;20476;-54
2022/07/14 07:38:41;;;;;;;4.65;0.98;;;;;;;33.96;29.29;102137.81;5215201;28;21123;-55
2022/07/14 07:41:14;;;;;;;5.97;1.25;;;;;;;34.59;28.83;102137.41;5216652;28;20446;-55
2022/07/14 07:43:46;;;;;;;3.83;0.95;;;;;;;35.19;28.43;102140.97;5220804;28;20426;-56
2022/07/14 07:46:18;;;;;;;4.20;0.87;;;;;;;35.64;27.87;102152.75;5220057;28;20804;-55
2022/07/14 07:48:52;;;;;;;4.90;0.82;;;;;;;35.76;27.97;102130.38;5188471;28;20845;-50
2022/07/14 07:51:25;;;;;;;3.00;0.95;;;;;;;36.08;27.61;102151.00;5218012;28;20445;-52
2022/07/14 07:53:57;;;;;;;7.15;0.75;;;;;;;35.98;27.79;102149.16;5218326;28;20479;-56
2022/07/14 07:56:30;;;;;;;4.38;1.17;;;;;;;36.18;27.69;102159.97;5216164;28;20759;-56
2022/07/14 07:59:02;;;;;;;4.30;1.00;;;;;;;36.29;27.89;102151.59;5222124;28;20429;-57
2022/07/14 08:01:34;;;;;;;3.42;0.82;;;;;;;36.06;27.98;102159.56;5216978;28;20407;-58
2022/07/14 08:04:09;;;;;;;4.43;1.03;;;;;;;36.01;27.87;102156.81;5219695;28;20416;-53
2022/07/14 08:06:42;;;;;;;4.22;1.02;;;;;;;36.06;27.96;102148.56;5220114;28;20431;-56
2022/07/14 08:09:15;;;;;;;6.95;1.70;;;;;;;36.01;27.80;102140.31;5214872;28;20411;-53
2022/07/14 08:11:47;;;;;;;4.43;1.20;;;;;;;36.10;27.76;102149.59;5215671;28;20432;-57
2022/07/14 08:17:10;;;;;;;5.28;1.02;;;;;;;35.81;27.95;102135.03;5214866;28;20426;-55
2022/07/14 08:19:44;;;;;;;8.73;1.42;;;;;;;35.49;27.97;102128.13;5214145;28;20427;-54
2022/07/14 08:22:24;;;;;;;3.47;0.90;;;;;;;35.26;28.38;102126.94;5214112;28;20440;-56
2022/07/14 08:24:57;;;;;;;2.03;0.60;;;;;;;34.16;28.75;102128.75;5217358;28;20770;-55
2022/07/14 08:27:30;;;;;;;3.20;0.90;;;;;;;33.02;29.64;102118.84;5215898;28;20428;-53
2022/07/14 08:30:02;;;;;;;4.35;1.17;;;;;;;32.81;29.84;102114.38;5211454;28;20419;-52
2022/07/14 08:32:38;;;;;;;3.75;0.82;;;;;;;32.20;30.16;102125.00;5216841;28;20507;-51
2022/07/14 08:35:14;;;;;;;3.35;0.90;;;;;;;31.43;30.36;102117.00;5214853;28;20443;-49
2022/07/14 08:37:47;;;;;;;2.63;0.80;;;;;;;30.99;30.60;102111.63;5212386;28;20421;-51
2022/07/14 08:40:22;;;;;;;5.13;1.50;;;;;;;31.16;30.29;102106.09;5214471;28;20429;-48
2022/07/14 08:42:57;;;;;;;4.30;1.20;;;;;;;31.53;29.96;102099.91;5217053;28;21078;-48
2022/07/14 08:45:30;;;;;;;5.63;1.00;;;;;;;32.06;29.26;102113.72;5218152;28;20449;-52
2022/07/14 08:48:04;;;;;;;3.53;1.10;;;;;;;32.39;29.07;102104.31;5219630;28;20408;-52
2022/07/14 08:50:38;;;;;;;3.30;1.00;;;;;;;32.72;28.59;102113.25;5222646;28;20438;-51
2022/07/14 08:53:13;;;;;;;4.03;0.83;;;;;;;32.61;28.67;102115.13;5220751;28;20514;-48
2022/07/14 08:55:46;;;;;;;2.50;0.63;;;;;;;32.03;28.97;102117.81;5223219;28;20953;-52
2022/07/14 08:58:18;;;;;;;3.58;1.20;;;;;;;31.38;29.64;102125.19;5221740;28;20745;-48
2022/07/14 09:00:51;;;;;;;5.13;0.80;;;;;;;31.05;29.78;102109.78;5223830;28;20563;-52
2022/07/14 09:03:23;;;;;;;4.55;0.90;;;;;;;30.85;29.91;102110.41;5222087;28;20472;-51
2022/07/14 09:05:57;;;;;;;4.10;0.93;;;;;;;31.09;29.55;102115.56;5220297;28;20545;-52
2022/07/14 09:08:50;;;;;;;2.88;1.13;;;;;;;31.49;29.30;102117.06;5211329;28;20959;-53
2022/07/14 09:11:22;;;;;;;3.13;1.10;;;;;;;31.67;28.95;102112.03;5218084;28;20412;-50
2022/07/14 09:14:08;;;;;;;4.80;1.10;;;;;;;31.92;28.52;102114.16;5219891;28;20938;-49
2022/07/14 09:16:40;;;;;;;3.60;1.02;;;;;;;31.90;28.59;102110.06;5224231;28;20895;-49
2022/07/14 09:19:15;;;;;;;5.37;1.10;;;;;;;31.50;28.72;102116.81;5213472;28;20417;-49
2022/07/14 09:21:58;;;;;;;3.03;1.13;;;;;;;31.46;28.97;102118.41;5203470;28;20429;-50
2022/07/14 09:24:30;;;;;;;4.70;1.27;;;;;;;31.31;28.88;102118.22;5215079;28;20428;-46
2022/07/14 09:27:03;;;;;;;4.57;1.10;;;;;;;31.04;28.75;102121.78;5218371;28;20415;-50
2022/07/14 09:29:36;;;;;;;5.15;1.48;;;;;;;31.17;28.82;102115.91;5212720;28;20536;-47
2022/07/14 09:32:08;;;;;;;4.78;0.85;;;;;;;31.50;28.53;102111.38;5212976;28;20423;-47
2022/07/14 09:34:40;;;;;;;5.17;1.20;;;;;;;31.78;28.13;102112.13;5213736;28;20420;-47
2022/07/14 09:37:17;;;;;;;3.33;0.65;;;;;;;31.91;27.87;102106.25;5216384;28;20434;-48
2022/07/14 09:39:54;;;;;;;3.65;1.02;;;;;;;32.07;28.00;102107.97;5212787;28;20431;-51
2022/07/14 09:42:53;;;;;;;5.30;0.87;;;;;;;32.07;27.73;102116.19;5172107;28;21632;-47
2022/07/14 09:45:29;;;;;;;2.25;0.98;;;;;;;32.13;27.88;102109.66;5179222;28;20891;-52
2022/07/14 09:48:06;;;;;;;4.35;0.90;;;;;;;32.18;27.72;102108.03;5169348;28;20424;-48
2022/07/14 09:50:47;;;;;;;3.30;1.10;;;;;;;32.20;27.52;102103.13;5162482;28;20993;-51
2022/07/14 09:53:25;;;;;;;4.63;0.98;;;;;;;32.08;27.38;102095.13;5164769;28;21019;-49
2022/07/14 09:56:00;;;;;;;5.32;1.60;;;;;;;31.75;27.63;102104.47;5168149;28;20476;-50
2022/07/14 09:58:41;;;;;;;6.72;1.40;;;;;;;31.03;28.39;102117.41;5167851;28;20924;-48
2022/07/14 10:01:18;;;;;;;4.68;1.00;;;;;;;30.61;28.71;102104.34;5169516;28;20948;-46
2022/07/14 10:03:54;;;;;;;3.05;0.75;;;;;;;30.49;28.86;102103.66;5165961;28;20485;-47
2022/07/14 10:06:27;;;;;;;4.00;0.70;;;;;;;30.37;28.82;102086.59;5174154;28;20949;-50
2022/07/14 10:09:02;;;;;;;3.03;0.63;;;;;;;30.42;28.69;102097.56;5169658;28;21846;-51
2022/07/14 10:11:34;;;;;;;5.82;0.63;;;;;;;30.64;28.43;102120.22;5178130;28;20506;-45
2022/07/14 10:14:07;;;;;;;4.32;0.70;;;;;;;30.70;28.45;102115.66;5178337;28;20935;-48
2022/07/14 10:16:41;;;;;;;4.70;0.70;;;;;;;30.70;28.69;102121.09;5173572;28;20562;-47
2022/07/14 10:19:14;;;;;;;2.83;0.80;;;;;;;30.67;28.70;102114.25;5172668;28;20434;-50
2022/07/14 10:21:47;;;;;;;3.92;0.65;;;;;;;30.63;28.91;102113.13;5175527;28;20476;-51
2022/07/14 10:24:21;;;;;;;3.65;0.60;;;;;;;30.53;29.04;102116.50;5179881;28;20761;-52
2022/07/14 10:26:54;;;;;;;5.95;1.33;;;;;;;30.56;29.13;102102.38;5181608;28;20824;-52
2022/07/14 10:29:26;;;;;;;3.10;0.60;;;;;;;30.72;29.14;102113.47;5174640;28;20434;-50
2022/07/14 10:32:16;;;;;;;5.82;0.77;;;;;;;30.72;29.17;102105.28;5180449;28;20490;-48
2022/07/14 10:35:06;;;;;;;4.20;0.85;;;;;;;30.76;29.29;102118.19;5184093;28;20503;-46
2022/07/14 10:37:51;;;;;;;4.90;0.80;;;;;;;30.76;29.52;102122.81;5180141;28;20416;-48
2022/07/14 10:40:37;;;;;;;1.92;0.73;;;;;;;30.72;29.64;102133.41;5174474;28;20429;-47
2022/07/14 10:43:13;;;;;;;5.60;0.93;;;;;;;30.73;29.80;102118.69;5200197;28;20544;-48
2022/07/14 10:45:49;;;;;;;4.53;0.90;;;;;;;30.75;29.83;102124.72;5200103;28;20433;-50
2022/07/14 10:48:32;;;;;;;2.40;0.55;;;;;;;30.73;30.07;102113.22;5195527;28;20855;-50
2022/07/14 10:51:18;;;;;;;3.47;0.57;;;;;;;30.70;30.18;102121.91;5193919;28;20745;-48
2022/07/14 10:54:11;;;;;;;2.67;0.73;;;;;;;30.68;30.17;102132.25;5198325;28;20844;-50
2022/07/14 10:56:46;;;;;;;4.70;0.80;;;;;;;30.71;30.28;102131.75;5197665;28;20428;-48
2022/07/14 10:59:35;;;;;;;3.28;0.65;;;;;;;30.73;30.30;102124.13;5198582;28;20421;-47
2022/07/14 11:02:33;;;;;;;3.53;0.90;;;;;;;30.83;30.26;102128.09;5198907;28;20411;-47
2022/07/14 11:05:23;;;;;;;4.10;0.80;;;;;;;30.76;30.50;102126.34;5196244;28;20423;-45
2022/07/14 11:08:10;;;;;;;5.00;0.80;;;;;;;30.78;30.60;102126.13;5203750;28;20416;-49
2022/07/14 11:11:09;;;;;;;2.53;0.60;;;;;;;30.79;30.60;102127.78;5202274;28;20429;-54
2022/07/14 11:14:12;;;;;;;2.78;0.80;;;;;;;30.80;30.79;102134.06;5203311;28;20422;-49
2022/07/14 11:17:03;;;;;;;2.80;0.70;;;;;;;30.75;30.77;102132.03;5202223;28;20812;-50
2022/07/14 11:19:38;;;;;;;3.92;0.80;;;;;;;30.74;30.95;102130.41;5200826;28;20451;-49
2022/07/14 11:22:17;;;;;;;3.95;0.77;;;;;;;30.76;30.97;102122.81;5202645;28;20410;-48
2022/07/14 11:24:55;;;;;;;6.15;1.65;;;;;;;30.93;30.66;102133.66;5204960;28;20436;-51
2022/07/14 11:27:39;;;;;;;2.50;0.80;;;;;;;30.83;30.87;102125.38;5204005;28;20431;-47
2022/07/14 11:30:35;;;;;;;2.03;0.55;;;;;;;30.98;31.00;102136.47;5198646;28;20790;-50
2022/07/14 11:33:11;;;;;;;3.17;1.00;;;;;;;31.13;30.71;102133.91;5189658;28;20410;-50
2022/07/14 11:38:41;;;;;;;1.65;0.73;;;;;;;31.20;30.69;102144.59;5185287;28;20784;-48
2022/07/14 11:41:14;;;;;;;2.20;0.80;;;;;;;31.06;30.70;102122.34;5200041;28;20425;-48
2022/07/14 11:43:50;;;;;;;3.10;0.75;;;;;;;30.98;30.60;102131.00;5209079;28;20637;-50
2022/07/14 11:46:24;;;;;;;1.70;0.45;;;;;;;30.77;30.61;102125.31;5219243;28;20427;-51
2022/07/14 11:48:56;;;;;;;1.77;0.57;;;;;;;30.60;30.66;102116.34;5220408;28;20851;-52
2022/07/14 11:51:30;;;;;;;3.50;0.87;;;;;;;30.59;30.59;102122.84;5221475;28;20439;-51
2022/07/14 11:54:04;;;;;;;2.35;0.52;;;;;;;30.72;30.25;102117.03;5225810;28;20411;-52
2022/07/14 11:56:36;;;;;;;4.20;0.60;;;;;;;30.86;29.91;102113.94;5217775;28;21728;-48
2022/07/14 11:59:09;;;;;;;4.15;0.70;;;;;;;30.99;29.77;102122.56;5219314;28;20441;-49
2022/07/14 12:01:44;;;;;;;2.57;0.60;;;;;;;31.04;29.77;102124.53;5220528;28;20543;-50
2022/07/14 12:04:17;;;;;;;2.35;0.60;;;;;;;31.14;29.68;102124.63;5222787;28;20421;-47
2022/07/14 12:06:50;;;;;;;4.50;1.10;;;;;;;31.19;29.56;102132.88;5222665;28;20898;-49
2022/07/14 12:09:30;;;;;;;1.50;0.40;;;;;;;31.20;29.38;102133.69;5218948;28;20420;-49
2022/07/14 12:12:03;;;;;;;3.70;0.55;;;;;;;31.13;29.60;102123.00;5213562;28;20882;-48
2022/07/14 12:14:45;;;;;;;2.15;0.55;;;;;;;31.10;29.43;102126.22;5222390;28;20477;-48